Time;durP1;ratioP1;P1;durP2;ratioP2;P2;SDS_P1;SDS_P2;PMS_P1;PMS_P2;Temp;Humidity;BMP_temperature;BMP_pressure;BME280_temperature;BME280_humidity;BME280_pressure;Samples;Min_cycle;Max_cycle;Signal;HPM_P1;HPM_P2
2022/01/12 00:01:59;;;;;;;38.92;20.23;;;;;;;;;;5052311;28;20164;-69
2022/01/12 00:04:25;;;;;;;46.88;20.90;;;;;;;;;;5053441;28;20136;-70
2022/01/12 00:06:52;;;;;;;41.30;20.38;;;;;;;;;;5052033;28;20053;-70
2022/01/12 00:09:18;;;;;;;45.92;22.35;;;;;;;;;;5051349;28;20050;-70
2022/01/12 00:11:44;;;;;;;41.40;19.60;;;;;;;;;;5052956;28;20058;-70
2022/01/12 00:14:11;;;;;;;39.03;18.77;;;;;;;;;;5051859;28;20519;-70
2022/01/12 00:16:39;;;;;;;40.33;20.17;;;;;;;;;;5050556;28;20057;-71
2022/01/12 00:19:05;;;;;;;34.60;19.10;;;;;;;;;;5050757;28;20057;-70
2022/01/12 00:21:31;;;;;;;39.72;20.33;;;;;;;;;;5051579;28;20110;-69
2022/01/12 00:23:57;;;;;;;38.95;20.52;;;;;;;;;;5051734;28;20049;-70
2022/01/12 00:26:38;;;;;;;36.97;20.13;;;;;;;;;;5051587;28;20063;-70
2022/01/12 00:34:36;;;;;;;37.88;20.25;;;;;;;;;;5044887;28;20080;-70
2022/01/12 00:37:02;;;;;;;39.58;20.00;;;;;;;;;;5051421;28;20057;-70
2022/01/12 00:39:28;;;;;;;34.58;19.73;;;;;;;;;;5051903;28;20049;-69
2022/01/12 00:41:55;;;;;;;38.70;20.85;;;;;;;;;;5051629;28;20067;-70
2022/01/12 00:44:24;;;;;;;33.85;19.02;;;;;;;;;;5053006;28;20056;-70
2022/01/12 00:46:51;;;;;;;35.75;19.90;;;;;;;;;;5052926;28;20526;-70
2022/01/12 00:49:18;;;;;;;38.05;20.67;;;;;;;;;;5052899;28;20049;-70
2022/01/12 00:51:44;;;;;;;39.78;20.83;;;;;;;;;;5052792;28;20417;-70
2022/01/12 00:54:10;;;;;;;38.50;19.38;;;;;;;;;;5053289;28;20511;-70
2022/01/12 00:56:37;;;;;;;33.10;19.77;;;;;;;;;;5052670;28;20088;-71
2022/01/12 00:59:03;;;;;;;41.47;22.35;;;;;;;;;;5052337;28;20057;-71
2022/01/12 01:01:30;;;;;;;36.58;20.33;;;;;;;;;;5052451;28;20338;-70
2022/01/12 01:03:56;;;;;;;34.95;19.50;;;;;;;;;;5052655;28;20500;-70
2022/01/12 01:06:23;;;;;;;34.50;18.60;;;;;;;;;;5052879;28;20053;-70
2022/01/12 01:08:51;;;;;;;36.08;18.65;;;;;;;;;;5052586;28;20445;-70
2022/01/12 01:11:18;;;;;;;36.05;20.50;;;;;;;;;;5052820;28;20053;-70
2022/01/12 01:13:56;;;;;;;34.08;20.23;;;;;;;;;;5052815;28;20095;-70
2022/01/12 01:27:23;;;;;;;39.83;20.80;;;;;;;;;;5055851;28;20401;-70
2022/01/12 01:29:49;;;;;;;36.58;19.55;;;;;;;;;;5056017;28;20092;-70
2022/01/12 01:32:16;;;;;;;39.55;20.98;;;;;;;;;;5055860;28;20093;-70
2022/01/12 01:34:46;;;;;;;36.55;19.75;;;;;;;;;;5056150;28;20100;-71
2022/01/12 01:37:12;;;;;;;33.72;19.55;;;;;;;;;;5054369;28;20060;-72
2022/01/12 01:39:39;;;;;;;38.25;20.50;;;;;;;;;;5055731;28;20045;-70
2022/01/12 01:42:16;;;;;;;37.00;18.70;;;;;;;;;;5055775;28;20421;-70
2022/01/12 01:55:26;;;;;;;37.03;20.60;;;;;;;;;;5054986;28;20107;-71
2022/01/12 01:57:52;;;;;;;41.92;22.90;;;;;;;;;;5055269;28;20104;-70
2022/01/12 02:00:22;;;;;;;38.97;22.20;;;;;;;;;;5054911;28;20101;-71
2022/01/12 02:02:50;;;;;;;42.97;22.48;;;;;;;;;;5066430;28;20640;-70
2022/01/12 02:05:16;;;;;;;44.25;23.13;;;;;;;;;;5052559;28;20053;-71
2022/01/12 02:07:43;;;;;;;39.30;21.77;;;;;;;;;;5053587;28;20136;-71
2022/01/12 02:10:09;;;;;;;39.03;22.13;;;;;;;;;;5054675;28;20140;-69
2022/01/12 02:12:36;;;;;;;38.10;21.48;;;;;;;;;;5054304;28;20420;-71
2022/01/12 02:15:03;;;;;;;40.38;21.42;;;;;;;;;;5054896;28;20492;-70
2022/01/12 02:17:36;;;;;;;41.53;21.20;;;;;;;;;;5063129;28;20054;-69
2022/01/12 02:36:24;;;;;;;54.42;24.92;;;;;;;;;;5053342;28;20531;-71
2022/01/12 02:41:38;;;;;;;47.63;25.73;;;;;;;;;;5052637;28;20053;-70
2022/01/12 02:54:49;;;;;;;53.80;24.38;;;;;;;;;;5054583;28;20127;-69
2022/01/12 02:57:15;;;;;;;50.10;25.45;;;;;;;;;;5054281;28;20132;-70
2022/01/12 03:00:01;;;;;;;51.92;24.92;;;;;;;;;;5054613;28;20057;-70
2022/01/12 03:02:35;;;;;;;50.55;24.33;;;;;;;;;;5053536;28;20096;-70
2022/01/12 03:05:30;;;;;;;48.13;25.40;;;;;;;;;;5054343;28;20144;-69
2022/01/12 03:08:02;;;;;;;55.65;25.10;;;;;;;;;;5054375;28;20053;-71
2022/01/12 03:10:28;;;;;;;54.00;24.70;;;;;;;;;;5053914;28;20049;-71
2022/01/12 03:12:54;;;;;;;54.45;25.60;;;;;;;;;;5054144;28;20511;-72
2022/01/12 03:15:21;;;;;;;61.15;25.58;;;;;;;;;;5054380;28;20081;-71
2022/01/12 03:17:47;;;;;;;53.03;26.23;;;;;;;;;;5054024;28;20045;-71
2022/01/12 03:20:13;;;;;;;60.40;26.08;;;;;;;;;;5054168;28;20057;-71
2022/01/12 03:22:40;;;;;;;50.35;25.77;;;;;;;;;;5054258;28;20045;-72
2022/01/12 03:25:06;;;;;;;55.17;24.90;;;;;;;;;;5053836;28;20049;-70
2022/01/12 03:27:33;;;;;;;51.50;25.88;;;;;;;;;;5053955;28;20057;-69
2022/01/12 03:29:59;;;;;;;58.38;26.77;;;;;;;;;;5051784;28;20049;-69
2022/01/12 03:35:46;;;;;;;60.28;27.08;;;;;;;;;;5052858;28;20080;-70
2022/01/12 03:38:20;;;;;;;61.67;27.52;;;;;;;;;;5053699;28;20140;-70
2022/01/12 03:40:46;;;;;;;;;;;;;;;;;;5054743;28;20060;-69
2022/01/12 03:43:12;;;;;;;;;;;;;;;;;;5053473;28;47017;-70
2022/01/12 03:45:39;;;;;;;54.88;25.20;;;;;;;;;;5052037;28;43601;-70
2022/01/12 03:48:05;;;;;;;55.47;24.55;;;;;;;;;;5054281;28;20401;-69
2022/01/12 03:50:32;;;;;;;59.42;26.77;;;;;;;;;;5052771;28;20084;-70
2022/01/12 03:52:58;;;;;;;53.05;25.13;;;;;;;;;;5053862;28;20485;-70
2022/01/12 03:55:24;;;;;;;60.00;27.55;;;;;;;;;;5053393;28;20083;-71
2022/01/12 03:57:51;;;;;;;59.15;27.00;;;;;;;;;;5053791;28;20057;-70
2022/01/12 04:00:17;;;;;;;54.28;26.23;;;;;;;;;;5053684;28;20107;-71
2022/01/12 04:02:43;;;;;;;55.08;26.08;;;;;;;;;;5053763;28;20481;-70
2022/01/12 04:05:25;;;;;;;64.60;26.80;;;;;;;;;;5052078;28;20053;-70
2022/01/12 04:10:37;;;;;;;63.80;28.45;;;;;;;;;;5052265;28;20619;-70
2022/01/12 04:13:03;;;;;;;66.63;29.02;;;;;;;;;;5051532;28;20432;-71
2022/01/12 04:15:30;;;;;;;59.63;26.90;;;;;;;;;;5051245;28;20053;-69
2022/01/12 04:17:56;;;;;;;61.03;27.50;;;;;;;;;;5050385;28;20148;-69
2022/01/12 04:20:23;;;;;;;75.63;27.73;;;;;;;;;;5052911;28;20512;-70
2022/01/12 04:25:34;;;;;;;59.28;27.08;;;;;;;;;;5052802;28;20144;-69
2022/01/12 04:28:01;;;;;;;61.67;27.35;;;;;;;;;;5053216;28;20054;-69
2022/01/12 04:30:27;;;;;;;70.15;28.20;;;;;;;;;;5053151;28;20053;-69
2022/01/12 04:32:54;;;;;;;65.40;27.33;;;;;;;;;;5053161;28;20107;-69
2022/01/12 04:35:24;;;;;;;67.03;28.08;;;;;;;;;;5053177;28;20149;-70
2022/01/12 04:37:51;;;;;;;68.32;28.85;;;;;;;;;;5052862;28;20496;-69
2022/01/12 04:40:17;;;;;;;78.63;29.42;;;;;;;;;;5052976;28;20057;-69
2022/01/12 04:42:43;;;;;;;72.05;29.25;;;;;;;;;;5052953;28;20054;-70
2022/01/12 04:45:31;;;;;;;89.30;30.55;;;;;;;;;;5053296;28;20129;-70
2022/01/12 04:48:02;;;;;;;98.78;32.63;;;;;;;;;;5053227;28;20123;-70
2022/01/12 04:50:30;;;;;;;77.72;29.98;;;;;;;;;;5052783;28;20607;-70
2022/01/12 04:52:56;;;;;;;78.95;30.92;;;;;;;;;;5053236;28;20057;-70
2022/01/12 04:55:23;;;;;;;78.22;29.10;;;;;;;;;;5052205;28;20088;-70
2022/01/12 04:57:49;;;;;;;81.03;29.95;;;;;;;;;;5052576;28;20050;-69
2022/01/12 05:00:17;;;;;;;77.68;30.10;;;;;;;;;;5051864;28;20144;-69
2022/01/12 05:13:42;;;;;;;74.57;29.95;;;;;;;;;;5046231;28;20061;-69
2022/01/12 05:16:12;;;;;;;75.30;28.80;;;;;;;;;;5052370;28;20140;-70
2022/01/12 05:18:39;;;;;;;78.32;29.92;;;;;;;;;;5052141;28;20057;-69
2022/01/12 05:21:05;;;;;;;112.78;32.00;;;;;;;;;;5052681;28;20081;-70
2022/01/12 05:23:32;;;;;;;71.70;29.83;;;;;;;;;;5052428;28;20171;-69
2022/01/12 05:25:59;;;;;;;74.32;31.00;;;;;;;;;;5051734;28;20584;-69
2022/01/12 05:28:26;;;;;;;97.47;32.95;;;;;;;;;;5052233;28;20439;-69
2022/01/12 05:30:53;;;;;;;81.03;31.27;;;;;;;;;;5052555;28;20256;-69
2022/01/12 05:33:22;;;;;;;93.25;31.52;;;;;;;;;;5051712;28;20096;-70
2022/01/12 05:35:49;;;;;;;136.45;33.20;;;;;;;;;;5050545;28;20112;-69
2022/01/12 05:38:15;;;;;;;82.28;31.98;;;;;;;;;;5042081;28;20057;-69
2022/01/12 05:40:45;;;;;;;103.07;33.17;;;;;;;;;;5051195;28;20505;-69
2022/01/12 05:43:13;;;;;;;90.78;30.65;;;;;;;;;;5052069;28;20065;-69
2022/01/12 05:45:43;;;;;;;73.13;30.27;;;;;;;;;;5051620;28;20053;-70
2022/01/12 05:50:37;;;;;;;76.30;29.77;;;;;;;;;;5051906;28;20079;-70
2022/01/12 05:53:03;;;;;;;72.20;29.10;;;;;;;;;;5048464;28;20053;-71
2022/01/12 05:55:30;;;;;;;81.80;29.83;;;;;;;;;;5052111;28;20140;-70
2022/01/12 05:58:00;;;;;;;87.78;30.48;;;;;;;;;;5051384;28;20140;-70
2022/01/12 06:00:27;;;;;;;88.88;31.42;;;;;;;;;;5051290;28;20053;-70
2022/01/12 06:02:54;;;;;;;78.93;29.83;;;;;;;;;;5044026;28;20053;-70
2022/01/12 06:05:21;;;;;;;81.05;29.52;;;;;;;;;;5052192;28;20054;-70
2022/01/12 06:07:49;;;;;;;83.60;29.92;;;;;;;;;;5052011;28;20057;-70
2022/01/12 06:10:16;;;;;;;74.38;28.48;;;;;;;;;;5054717;28;20144;-70
2022/01/12 06:12:42;;;;;;;78.95;28.48;;;;;;;;;;5054776;28;20046;-70
2022/01/12 06:15:09;;;;;;;82.05;31.05;;;;;;;;;;5055092;28;20053;-70
2022/01/12 06:17:35;;;;;;;80.90;31.20;;;;;;;;;;5055184;28;20056;-70
2022/01/12 06:20:05;;;;;;;70.72;28.58;;;;;;;;;;5055585;28;20060;-70
2022/01/12 06:22:31;;;;;;;93.07;32.90;;;;;;;;;;5054425;28;20081;-70
2022/01/12 06:25:00;;;;;;;99.40;32.60;;;;;;;;;;5054462;28;20111;-71
2022/01/12 06:27:31;;;;;;;105.47;33.35;;;;;;;;;;5054679;28;20053;-70
2022/01/12 06:32:42;;;;;;;75.57;28.63;;;;;;;;;;5054780;28;20050;-70
2022/01/12 06:35:08;;;;;;;88.38;29.65;;;;;;;;;;5055109;28;20057;-70
2022/01/12 06:37:35;;;;;;;78.70;29.55;;;;;;;;;;5053179;28;20521;-70
2022/01/12 06:40:01;;;;;;;75.25;30.05;;;;;;;;;;5054038;28;20057;-70
2022/01/12 06:42:27;;;;;;;90.45;31.50;;;;;;;;;;5046760;28;20496;-69
2022/01/12 06:44:53;;;;;;;106.13;32.20;;;;;;;;;;5052094;28;20049;-69
2022/01/12 06:47:20;;;;;;;69.90;28.23;;;;;;;;;;5049658;28;20057;-69
2022/01/12 06:49:46;;;;;;;73.38;27.58;;;;;;;;;;5051327;28;20053;-70
2022/01/12 06:52:12;;;;;;;81.97;26.67;;;;;;;;;;5049322;28;20576;-70
2022/01/12 06:54:39;;;;;;;64.03;26.10;;;;;;;;;;5049542;28;20049;-70
2022/01/12 06:57:05;;;;;;;70.85;27.65;;;;;;;;;;5051661;28;20496;-70
2022/01/12 06:59:31;;;;;;;59.33;25.60;;;;;;;;;;5049138;28;20053;-70
2022/01/12 07:01:58;;;;;;;56.00;24.05;;;;;;;;;;5045056;28;20069;-70
2022/01/12 07:04:25;;;;;;;53.45;23.33;;;;;;;;;;5050948;28;20053;-70
2022/01/12 07:06:51;;;;;;;61.20;23.70;;;;;;;;;;5050589;28;20081;-71
2022/01/12 07:09:17;;;;;;;54.25;24.90;;;;;;;;;;5048999;28;20072;-72
2022/01/12 07:11:44;;;;;;;58.75;24.17;;;;;;;;;;5050600;28;20708;-68
2022/01/12 07:14:10;;;;;;;66.30;25.10;;;;;;;;;;5052625;28;20060;-70
2022/01/12 07:16:36;;;;;;;61.05;24.55;;;;;;;;;;5049397;28;20530;-70
2022/01/12 07:19:03;;;;;;;52.58;23.80;;;;;;;;;;5052489;28;20160;-70
2022/01/12 07:21:29;;;;;;;61.83;25.13;;;;;;;;;;5053553;28;20053;-70
2022/01/12 07:23:56;;;;;;;56.03;25.05;;;;;;;;;;5052367;28;20053;-69
2022/01/12 07:26:23;;;;;;;62.20;25.10;;;;;;;;;;5052650;28;20613;-70
2022/01/12 07:28:49;;;;;;;68.85;27.30;;;;;;;;;;5053725;28;20057;-69
2022/01/12 07:31:16;;;;;;;54.75;24.23;;;;;;;;;;5052665;28;20050;-69
2022/01/12 07:33:42;;;;;;;58.90;25.08;;;;;;;;;;5051324;28;20063;-71
2022/01/12 07:36:09;;;;;;;61.72;24.23;;;;;;;;;;5052060;28;20059;-68
2022/01/12 07:38:35;;;;;;;57.10;23.05;;;;;;;;;;5051304;28;20144;-70
2022/01/12 07:41:01;;;;;;;50.72;22.58;;;;;;;;;;5052901;28;20064;-68
2022/01/12 07:43:28;;;;;;;59.47;24.42;;;;;;;;;;5052008;28;20057;-69
2022/01/12 07:45:54;;;;;;;58.90;23.10;;;;;;;;;;5047862;28;20053;-69
2022/01/12 07:48:24;;;;;;;59.70;23.17;;;;;;;;;;5041597;28;20064;-68
2022/01/12 07:50:50;;;;;;;54.90;24.17;;;;;;;;;;5044406;28;20796;-70
2022/01/12 07:53:16;;;;;;;60.65;22.55;;;;;;;;;;5053433;28;20054;-69
2022/01/12 07:55:43;;;;;;;67.68;22.65;;;;;;;;;;5050872;28;20060;-70
2022/01/12 07:58:09;;;;;;;58.38;22.20;;;;;;;;;;5051098;28;20056;-70
2022/01/12 08:00:36;;;;;;;84.55;23.85;;;;;;;;;;5051448;28;20062;-70
2022/01/12 08:03:02;;;;;;;68.18;22.17;;;;;;;;;;5051365;28;20360;-70
2022/01/12 08:05:29;;;;;;;68.60;21.02;;;;;;;;;;5052019;28;20079;-69
2022/01/12 08:07:55;;;;;;;68.88;18.40;;;;;;;;;;5052917;28;20136;-70
2022/01/12 08:10:22;;;;;;;71.03;18.50;;;;;;;;;;5051660;28;20049;-69
2022/01/12 08:12:48;;;;;;;57.97;17.77;;;;;;;;;;5051590;28;20076;-69
2022/01/12 08:15:15;;;;;;;80.32;18.05;;;;;;;;;;5051679;28;20064;-66
2022/01/12 08:17:41;;;;;;;65.68;17.38;;;;;;;;;;5050119;28;20045;-69
2022/01/12 08:20:11;;;;;;;83.03;18.48;;;;;;;;;;5051522;28;20053;-70
2022/01/12 08:22:37;;;;;;;60.22;17.45;;;;;;;;;;5051341;28;20064;-70
2022/01/12 08:25:04;;;;;;;71.85;18.52;;;;;;;;;;5051353;28;20468;-70
2022/01/12 08:27:31;;;;;;;68.65;20.50;;;;;;;;;;5051379;28;20509;-69
2022/01/12 08:30:01;;;;;;;61.33;19.67;;;;;;;;;;5050433;28;20519;-69
2022/01/12 08:32:28;;;;;;;62.92;17.10;;;;;;;;;;5050047;28;20091;-68
2022/01/12 08:34:55;;;;;;;52.35;16.00;;;;;;;;;;5051358;28;20062;-68
2022/01/12 08:37:22;;;;;;;51.40;14.73;;;;;;;;;;5050965;28;20056;-68
2022/01/12 08:39:48;;;;;;;63.60;16.65;;;;;;;;;;5051531;28;20049;-70
2022/01/12 08:42:14;;;;;;;62.90;15.35;;;;;;;;;;5050911;28;20054;-69
2022/01/12 08:44:45;;;;;;;61.20;16.63;;;;;;;;;;5052448;28;20578;-71
2022/01/12 08:47:11;;;;;;;46.28;14.60;;;;;;;;;;5050655;28;20053;-70
2022/01/12 08:49:37;;;;;;;56.33;16.23;;;;;;;;;;5051026;28;20084;-69
2022/01/12 08:52:04;;;;;;;48.50;14.88;;;;;;;;;;5051210;28;20057;-69
2022/01/12 08:54:31;;;;;;;52.80;15.15;;;;;;;;;;5051827;28;20060;-70
2022/01/12 08:56:57;;;;;;;58.00;15.88;;;;;;;;;;5052303;28;20049;-70
2022/01/12 08:59:23;;;;;;;53.42;15.15;;;;;;;;;;5050790;28;20506;-69
2022/01/12 09:01:50;;;;;;;48.42;15.27;;;;;;;;;;5051663;28;20054;-70
2022/01/12 09:04:16;;;;;;;36.83;13.18;;;;;;;;;;5051578;28;20050;-70
2022/01/12 09:06:47;;;;;;;47.97;11.93;;;;;;;;;;5051082;28;20140;-70
2022/01/12 09:09:14;;;;;;;45.60;13.63;;;;;;;;;;5052310;28;20580;-70
2022/01/12 09:11:40;;;;;;;40.00;13.60;;;;;;;;;;5052359;28;20496;-70
2022/01/12 09:14:06;;;;;;;44.63;14.43;;;;;;;;;;5050404;28;20057;-69
2022/01/12 09:16:34;;;;;;;38.80;12.82;;;;;;;;;;5049355;28;20326;-70
2022/01/12 09:19:00;;;;;;;43.60;14.48;;;;;;;;;;5051004;28;20056;-70
2022/01/12 09:21:28;;;;;;;61.33;14.65;;;;;;;;;;5049480;28;20053;-69
2022/01/12 09:23:54;;;;;;;46.60;13.35;;;;;;;;;;5051271;28;20050;-70
2022/01/12 09:26:21;;;;;;;48.35;13.77;;;;;;;;;;5048190;28;20505;-69
2022/01/12 09:28:48;;;;;;;45.85;12.73;;;;;;;;;;5050976;28;20063;-69
2022/01/12 09:31:14;;;;;;;49.95;14.90;;;;;;;;;;5051696;28;20493;-70
2022/01/12 09:33:41;;;;;;;43.90;13.93;;;;;;;;;;5049427;28;20080;-71
2022/01/12 09:36:07;;;;;;;45.00;12.63;;;;;;;;;;5049420;28;20045;-72
2022/01/12 09:38:33;;;;;;;43.33;15.02;;;;;;;;;;5049267;28;20064;-71
2022/01/12 09:41:02;;;;;;;42.72;12.70;;;;;;;;;;5047207;28;20532;-70
2022/01/12 09:43:33;;;;;;;42.25;12.57;;;;;;;;;;5046468;28;20088;-69
2022/01/12 09:46:00;;;;;;;47.20;13.18;;;;;;;;;;5051600;28;20088;-70
2022/01/12 09:48:29;;;;;;;33.10;11.63;;;;;;;;;;5051266;28;20049;-70
2022/01/12 09:50:59;;;;;;;38.10;12.60;;;;;;;;;;5054275;28;20085;-69
2022/01/12 09:53:25;;;;;;;37.72;11.13;;;;;;;;;;5053708;28;20049;-69
2022/01/12 09:55:52;;;;;;;31.13;10.77;;;;;;;;;;5054365;28;20188;-69
2022/01/12 09:58:18;;;;;;;33.95;9.48;;;;;;;;;;5053775;28;20053;-69
2022/01/12 10:00:55;;;;;;;35.65;10.10;;;;;;;;;;5053247;28;20057;-69
2022/01/12 10:03:23;;;;;;;29.38;9.50;;;;;;;;;;5054357;28;20129;-69
2022/01/12 10:05:49;;;;;;;24.05;8.88;;;;;;;;;;5052250;28;20060;-69
2022/01/12 10:08:16;;;;;;;33.65;9.32;;;;;;;;;;5048341;28;20549;-69
2022/01/12 10:10:47;;;;;;;38.47;10.00;;;;;;;;;;5050556;28;20145;-70
2022/01/12 10:13:22;;;;;;;25.88;9.15;;;;;;;;;;5052050;28;20049;-69
2022/01/12 10:15:50;;;;;;;33.38;10.00;;;;;;;;;;5050706;28;20058;-70
2022/01/12 10:18:17;;;;;;;31.38;8.93;;;;;;;;;;5051803;28;20472;-70
2022/01/12 10:20:46;;;;;;;37.45;11.35;;;;;;;;;;5048891;28;20053;-70
2022/01/12 10:23:14;;;;;;;31.23;8.95;;;;;;;;;;5051555;28;20115;-70
2022/01/12 10:25:46;;;;;;;27.55;9.25;;;;;;;;;;5051541;28;20060;-71
2022/01/12 10:28:19;;;;;;;33.60;9.80;;;;;;;;;;5052072;28;20057;-69
2022/01/12 10:30:56;;;;;;;24.77;9.73;;;;;;;;;;5053545;28;20511;-70
2022/01/12 10:33:24;;;;;;;33.55;9.82;;;;;;;;;;5054764;28;20500;-69
2022/01/12 10:35:54;;;;;;;33.67;9.70;;;;;;;;;;5052298;28;20065;-71
2022/01/12 10:38:22;;;;;;;33.95;10.75;;;;;;;;;;5052046;28;20140;-70
2022/01/12 10:40:50;;;;;;;30.92;11.70;;;;;;;;;;5051931;28;20053;-70
2022/01/12 10:43:31;;;;;;;33.17;11.88;;;;;;;;;;5053773;28;20046;-69
2022/01/12 10:45:58;;;;;;;29.98;10.52;;;;;;;;;;5052586;28;20057;-72
2022/01/12 10:48:31;;;;;;;28.80;11.48;;;;;;;;;;5047916;28;20085;-72
2022/01/12 10:50:59;;;;;;;36.92;10.85;;;;;;;;;;5047360;28;20084;-71
2022/01/12 10:53:26;;;;;;;32.92;12.35;;;;;;;;;;5045100;28;20139;-69
2022/01/12 10:56:19;;;;;;;42.95;11.80;;;;;;;;;;5049250;28;20505;-69
2022/01/12 10:58:46;;;;;;;34.40;11.20;;;;;;;;;;5049510;28;20058;-69
2022/01/12 11:01:14;;;;;;;27.65;10.38;;;;;;;;;;5047818;28;20057;-68
2022/01/12 11:03:40;;;;;;;29.15;9.98;;;;;;;;;;5047720;28;20054;-68
2022/01/12 11:06:07;;;;;;;27.73;9.77;;;;;;;;;;5052364;28;20069;-68
2022/01/12 11:08:34;;;;;;;30.35;10.85;;;;;;;;;;5048428;28;20057;-69
2022/01/12 11:11:01;;;;;;;35.50;11.13;;;;;;;;;;5049448;28;20064;-68
2022/01/12 11:13:28;;;;;;;32.97;10.45;;;;;;;;;;5048756;28;20147;-69
2022/01/12 11:15:56;;;;;;;37.67;11.40;;;;;;;;;;5049753;28;20516;-69
2022/01/12 11:18:32;;;;;;;40.17;12.32;;;;;;;;;;5044632;28;20045;-68
2022/01/12 11:21:00;;;;;;;33.42;12.68;;;;;;;;;;5049229;28;20165;-68
2022/01/12 11:23:35;;;;;;;33.63;11.05;;;;;;;;;;5047565;28;20049;-68
2022/01/12 11:26:10;;;;;;;28.33;10.63;;;;;;;;;;5052441;28;20053;-68
2022/01/12 11:28:37;;;;;;;30.20;11.25;;;;;;;;;;5052074;28;20424;-68
2022/01/12 11:31:04;;;;;;;26.92;10.27;;;;;;;;;;5054800;28;20060;-67
2022/01/12 11:33:31;;;;;;;29.13;10.30;;;;;;;;;;5049451;28;20053;-68
2022/01/12 11:36:04;;;;;;;26.63;10.18;;;;;;;;;;5048860;28;20056;-69
2022/01/12 11:38:34;;;;;;;28.75;9.77;;;;;;;;;;5050576;28;20501;-68
2022/01/12 11:41:23;;;;;;;39.15;10.25;;;;;;;;;;5051334;28;20164;-69
2022/01/12 11:43:51;;;;;;;25.90;10.27;;;;;;;;;;5046683;28;20049;-67
2022/01/12 11:46:23;;;;;;;28.05;11.40;;;;;;;;;;5050207;28;20148;-67
2022/01/12 11:48:51;;;;;;;34.60;11.32;;;;;;;;;;5049174;28;20092;-68
2022/01/12 11:51:18;;;;;;;28.88;10.20;;;;;;;;;;5055383;28;20084;-69
2022/01/12 11:53:49;;;;;;;30.08;10.55;;;;;;;;;;5049677;28;20057;-68
2022/01/12 11:56:23;;;;;;;32.35;10.82;;;;;;;;;;5049771;28;20054;-68
2022/01/12 11:59:05;;;;;;;33.28;10.43;;;;;;;;;;5049866;28;20049;-69
2022/01/12 12:01:39;;;;;;;24.58;9.35;;;;;;;;;;5048752;28;20060;-69
2022/01/12 12:04:06;;;;;;;32.45;11.13;;;;;;;;;;5053106;28;20057;-68
2022/01/12 12:06:32;;;;;;;23.73;9.32;;;;;;;;;;5050116;28;20049;-70
2022/01/12 12:09:15;;;;;;;32.55;10.13;;;;;;;;;;5053713;28;20085;-70
2022/01/12 12:11:48;;;;;;;24.17;9.93;;;;;;;;;;5052781;28;20057;-70
2022/01/12 12:14:16;;;;;;;34.45;11.82;;;;;;;;;;5050792;28;20057;-69
2022/01/12 12:16:43;;;;;;;30.40;12.75;;;;;;;;;;5049544;28;20057;-70
2022/01/12 12:19:09;;;;;;;32.85;11.43;;;;;;;;;;5051606;28;20060;-69
2022/01/12 12:21:35;;;;;;;31.30;11.98;;;;;;;;;;5050611;28;20063;-69
2022/01/12 12:24:11;;;;;;;31.23;11.68;;;;;;;;;;5044784;28;20518;-69
2022/01/12 12:26:43;;;;;;;30.80;10.93;;;;;;;;;;5049231;28;20083;-69
2022/01/12 12:29:09;;;;;;;27.85;10.23;;;;;;;;;;5049034;28;20049;-69
2022/01/12 12:31:35;;;;;;;26.77;10.73;;;;;;;;;;5046316;28;20560;-70
2022/01/12 12:34:21;;;;;;;28.42;9.73;;;;;;;;;;5048498;28;20064;-69
2022/01/12 12:36:55;;;;;;;31.20;9.43;;;;;;;;;;5048294;28;20057;-68
2022/01/12 12:39:22;;;;;;;22.98;8.85;;;;;;;;;;5049142;28;20049;-69
2022/01/12 12:41:48;;;;;;;22.15;7.65;;;;;;;;;;5050990;28;20524;-68
2022/01/12 12:44:19;;;;;;;20.67;8.40;;;;;;;;;;5050708;28;20060;-68
2022/01/12 12:46:46;;;;;;;24.30;8.75;;;;;;;;;;5050009;28;20050;-69
2022/01/12 12:49:13;;;;;;;26.20;9.57;;;;;;;;;;5052061;28;20058;-68
2022/01/12 12:51:39;;;;;;;36.03;9.52;;;;;;;;;;5052378;28;20052;-68
2022/01/12 12:54:06;;;;;;;22.50;9.25;;;;;;;;;;5051812;28;20123;-69
2022/01/12 12:56:54;;;;;;;21.60;9.40;;;;;;;;;;5046436;28;20053;-68
2022/01/12 12:59:20;;;;;;;29.98;11.88;;;;;;;;;;5046292;28;20050;-68
2022/01/12 13:01:47;;;;;;;30.15;9.52;;;;;;;;;;5048626;28;20061;-69
2022/01/12 13:04:16;;;;;;;22.80;8.88;;;;;;;;;;5047877;28;20056;-70
2022/01/12 13:06:42;;;;;;;20.02;9.45;;;;;;;;;;5041416;28;20513;-69
2022/01/12 13:09:09;;;;;;;23.00;9.65;;;;;;;;;;5049983;28;20160;-70
2022/01/12 13:11:37;;;;;;;23.02;9.00;;;;;;;;;;5049569;28;20439;-71
2022/01/12 13:14:05;;;;;;;21.60;9.15;;;;;;;;;;5050320;28;20505;-69
2022/01/12 13:16:32;;;;;;;26.25;9.38;;;;;;;;;;5046568;28;20149;-69
2022/01/12 13:19:07;;;;;;;22.15;10.20;;;;;;;;;;5047707;28;20167;-68
2022/01/12 13:21:37;;;;;;;30.40;11.55;;;;;;;;;;5051896;28;20053;-68
2022/01/12 13:24:03;;;;;;;29.92;11.20;;;;;;;;;;5054711;28;20481;-69
2022/01/12 13:26:31;;;;;;;27.80;11.98;;;;;;;;;;5054461;28;20461;-69
2022/01/12 13:29:00;;;;;;;30.85;11.30;;;;;;;;;;5054528;28;20054;-70
2022/01/12 13:31:27;;;;;;;31.55;10.40;;;;;;;;;;5054685;28;20521;-69
2022/01/12 13:33:53;;;;;;;26.55;11.38;;;;;;;;;;5053327;28;20061;-68
2022/01/12 13:36:20;;;;;;;31.25;11.75;;;;;;;;;;5051396;28;20054;-69
2022/01/12 13:38:47;;;;;;;26.98;11.23;;;;;;;;;;5052457;28;20052;-68
2022/01/12 13:41:22;;;;;;;25.15;10.80;;;;;;;;;;5052663;28;20049;-69
2022/01/12 13:43:52;;;;;;;26.35;11.98;;;;;;;;;;5065355;28;20076;-67
2022/01/12 13:46:19;;;;;;;33.42;13.13;;;;;;;;;;5053063;28;20079;-67
2022/01/12 13:49:38;;;;;;;37.75;12.57;;;;;;;;;;5048568;28;20520;-68
2022/01/12 13:51:43;;;;;;;34.13;12.20;;;;;;;;;;5049640;28;20054;-69
2022/01/12 13:54:10;;;;;;;33.67;12.65;;;;;;;;;;5051440;28;20045;-69
2022/01/12 13:56:41;;;;;;;33.47;13.27;;;;;;;;;;5050557;28;20061;-71
2022/01/12 13:59:08;;;;;;;32.35;13.77;;;;;;;;;;5050332;28;20535;-69
2022/01/12 14:01:36;;;;;;;28.17;12.93;;;;;;;;;;5050931;28;20100;-72
2022/01/12 14:04:13;;;;;;;35.88;15.13;;;;;;;;;;5054045;28;20058;-71
2022/01/12 14:06:47;;;;;;;32.10;14.48;;;;;;;;;;5055328;28;20049;-72
2022/01/12 14:09:23;;;;;;;36.60;13.80;;;;;;;;;;5055622;28;20084;-72
2022/01/12 14:11:49;;;;;;;;;;;;;;;;;;5055269;28;20485;-70
2022/01/12 14:14:15;;;;;;;;;;;;;;;;;;5053713;28;46695;-70
2022/01/12 14:16:42;;;;;;;;;;;;;;;;;;5049673;28;43716;-69
2022/01/12 14:19:09;;;;;;;33.13;14.45;;;;;;;;;;5051320;28;45285;-70
2022/01/12 14:21:36;;;;;;;32.20;15.10;;;;;;;;;;5052403;28;20103;-71
2022/01/12 14:24:06;;;;;;;42.55;15.88;;;;;;;;;;5054927;28;20503;-70
2022/01/12 14:26:40;;;;;;;29.35;15.27;;;;;;;;;;5054782;28;20050;-70
2022/01/12 14:29:06;;;;;;;31.58;16.02;;;;;;;;;;5049832;28;20060;-70
2022/01/12 14:31:33;;;;;;;33.72;15.90;;;;;;;;;;5049200;28;20523;-70
2022/01/12 14:33:59;;;;;;;30.67;16.73;;;;;;;;;;5048091;28;20058;-70
2022/01/12 14:36:26;;;;;;;27.92;16.00;;;;;;;;;;5051150;28;20504;-70
2022/01/12 14:38:52;;;;;;;36.38;17.42;;;;;;;;;;5052179;28;20053;-69
2022/01/12 14:41:19;;;;;;;32.08;16.67;;;;;;;;;;5052554;28;20057;-68
2022/01/12 14:43:46;;;;;;;38.75;18.02;;;;;;;;;;5053558;28;20058;-69
2022/01/12 14:46:16;;;;;;;38.90;18.15;;;;;;;;;;5052007;28;20050;-68
2022/01/12 14:48:42;;;;;;;33.70;18.48;;;;;;;;;;5051851;28;20100;-69
2022/01/12 14:51:08;;;;;;;37.90;18.17;;;;;;;;;;5051246;28;20112;-70
2022/01/12 14:53:35;;;;;;;41.95;18.83;;;;;;;;;;5041646;28;20145;-70
2022/01/12 14:56:02;;;;;;;33.80;16.73;;;;;;;;;;5050817;28;20057;-70
2022/01/12 14:58:29;;;;;;;35.35;16.48;;;;;;;;;;5052438;28;20141;-70
2022/01/12 15:00:56;;;;;;;38.33;16.90;;;;;;;;;;5046930;28;20054;-70
2022/01/12 15:03:22;;;;;;;37.13;17.52;;;;;;;;;;5052358;28;20060;-70
2022/01/12 15:05:50;;;;;;;34.85;15.77;;;;;;;;;;5054273;28;20057;-69
2022/01/12 15:08:17;;;;;;;36.83;17.25;;;;;;;;;;5054596;28;20057;-68
2022/01/12 15:10:44;;;;;;;37.45;17.42;;;;;;;;;;5053429;28;20061;-70
2022/01/12 15:13:17;;;;;;;37.85;17.20;;;;;;;;;;5052363;28;20455;-69
2022/01/12 15:15:45;;;;;;;33.50;17.02;;;;;;;;;;5051024;28;20137;-68
2022/01/12 15:18:11;;;;;;;36.53;17.25;;;;;;;;;;5048927;28;20053;-69
2022/01/12 15:20:38;;;;;;;38.03;18.05;;;;;;;;;;5052432;28;20056;-69
2022/01/12 15:23:04;;;;;;;35.20;17.65;;;;;;;;;;5051337;28;20061;-69
2022/01/12 15:25:30;;;;;;;32.30;15.40;;;;;;;;;;5052205;28;20132;-69
2022/01/12 15:27:57;;;;;;;35.83;17.80;;;;;;;;;;5050257;28;20057;-68
2022/01/12 15:30:23;;;;;;;32.78;15.77;;;;;;;;;;5047795;28;20060;-70
2022/01/12 15:32:51;;;;;;;40.35;15.23;;;;;;;;;;5049868;28;20046;-69
2022/01/12 15:35:18;;;;;;;30.20;15.80;;;;;;;;;;5053240;28;20144;-69
2022/01/12 15:37:46;;;;;;;33.92;15.68;;;;;;;;;;5053163;28;20148;-69
2022/01/12 15:40:12;;;;;;;36.17;16.38;;;;;;;;;;5050892;28;20053;-69
2022/01/12 15:42:38;;;;;;;37.30;15.25;;;;;;;;;;5053432;28;20137;-68
2022/01/12 15:45:05;;;;;;;36.50;16.67;;;;;;;;;;5052413;28;20064;-67
2022/01/12 15:47:32;;;;;;;35.15;14.63;;;;;;;;;;5053180;28;20060;-68
2022/01/12 15:49:58;;;;;;;31.42;14.93;;;;;;;;;;5050998;28;20145;-68